Time;durP1;ratioP1;P1;durP2;ratioP2;P2;SDS_P1;SDS_P2;PMS_P1;PMS_P2;Temp;Humidity;BMP_temperature;BMP_pressure;BME280_temperature;BME280_humidity;BME280_pressure;Samples;Min_cycle;Max_cycle;Signal;HPM_P1;HPM_P2
2023/05/17 00:01:14;;;;;;;;;7.75;5.50;;;;;14.75;45.37;102011.69;5032799;28;45381;-65
2023/05/17 00:03:40;;;;;;;;;6.75;4.50;;;;;14.72;45.70;102007.31;5019898;28;45514;-65
2023/05/17 00:06:05;;;;;;;;;6.75;6.25;;;;;14.70;45.72;102008.22;5019555;28;50983;-65
2023/05/17 00:08:30;;;;;;;;;7.25;7.25;;;;;14.70;45.92;102010.88;5023379;28;45475;-65
2023/05/17 00:10:56;;;;;;;;;8.00;5.25;;;;;14.67;45.66;102014.44;5017795;28;47765;-63
2023/05/17 00:13:21;;;;;;;;;6.00;4.75;;;;;14.63;46.20;102012.69;5019650;28;45244;-65
2023/05/17 00:15:47;;;;;;;;;8.50;6.00;;;;;14.62;46.30;102018.88;5019669;28;45371;-65
2023/05/17 00:18:12;;;;;;;;;10.75;9.00;;;;;14.60;46.01;102018.00;5019792;28;45241;-67
2023/05/17 00:20:37;;;;;;;;;8.50;7.50;;;;;14.57;46.00;102021.56;5019004;28;49845;-65
2023/05/17 00:23:03;;;;;;;;;8.00;8.00;;;;;14.56;45.92;102018.94;5018719;28;45400;-65
2023/05/17 00:25:28;;;;;;;;;8.00;6.50;;;;;14.53;46.08;102019.84;5019361;28;45464;-65
2023/05/17 00:27:54;;;;;;;;;8.00;7.75;;;;;14.50;46.38;102013.69;5019393;28;45305;-65
2023/05/17 00:30:19;;;;;;;;;8.75;7.50;;;;;14.48;46.48;102011.06;5019323;28;45530;-63
2023/05/17 00:32:45;;;;;;;;;10.25;8.75;;;;;14.47;46.56;102019.91;5019387;28;45333;-64
2023/05/17 00:35:11;;;;;;;;;9.25;8.25;;;;;14.43;46.16;102015.53;5019314;28;45573;-65
2023/05/17 00:37:36;;;;;;;;;8.00;8.00;;;;;14.42;46.21;102017.28;5018341;28;45258;-65
2023/05/17 00:40:04;;;;;;;;;10.50;7.75;;;;;14.41;46.71;102014.66;5001342;28;48514;-65
2023/05/17 00:42:29;;;;;;;;;9.25;7.50;;;;;14.38;46.14;102012.06;5019081;28;45399;-65
2023/05/17 00:44:55;;;;;;;;;11.50;11.25;;;;;14.37;46.59;102011.16;5017370;28;45373;-65
2023/05/17 00:47:20;;;;;;;;;10.00;8.00;;;;;14.34;46.61;102012.97;5021012;28;45289;-65
2023/05/17 00:49:45;;;;;;;;;11.50;8.75;;;;;14.33;46.24;102016.53;5022420;28;46197;-65
2023/05/17 00:52:11;;;;;;;;;9.50;8.00;;;;;14.32;46.32;102017.41;5021444;28;45480;-65
2023/05/17 00:54:37;;;;;;;;;8.50;7.50;;;;;14.29;46.65;102011.25;5022657;28;45491;-65
2023/05/17 00:57:03;;;;;;;;;11.50;9.50;;;;;14.26;46.71;102011.28;5016457;28;45300;-65
2023/05/17 00:59:29;;;;;;;;;14.50;11.00;;;;;14.23;46.65;102010.44;5015464;28;45337;-65
2023/05/17 01:01:55;;;;;;;;;11.25;10.00;;;;;14.22;46.82;102012.19;5021161;28;45243;-65
2023/05/17 01:04:21;;;;;;;;;9.75;9.00;;;;;14.20;47.26;102010.44;5022498;28;45455;-65
2023/05/17 01:06:46;;;;;;;;;10.75;10.25;;;;;14.16;47.31;102008.75;5022502;28;45471;-65
2023/05/17 01:09:12;;;;;;;;;8.50;8.25;;;;;14.12;46.85;102007.88;5025579;28;46963;-63
2023/05/17 01:12:10;;;;;;;;;12.50;9.75;;;;;14.12;47.15;102013.16;5022513;28;45447;-65
2023/05/17 01:14:44;;;;;;;;;14.25;12.00;;;;;14.11;46.89;102004.38;5022311;28;45339;-65
2023/05/17 01:17:18;;;;;;;;;11.00;10.50;;;;;14.08;47.29;102008.81;5022337;28;45288;-65
2023/05/17 01:19:55;;;;;;;;;9.25;8.00;;;;;14.07;46.97;102010.56;5009487;28;45456;-65
2023/05/17 01:22:50;;;;;;;;;12.00;9.75;;;;;14.08;47.03;102006.16;5022104;28;45254;-65
2023/05/17 01:25:39;;;;;;;;;10.75;10.75;;;;;14.02;47.21;101991.22;5020839;28;45360;-65
2023/05/17 01:28:06;;;;;;;;;6.00;6.00;;;;;14.06;47.48;101992.06;5011921;28;45232;-65
2023/05/17 01:30:33;;;;;;;;;11.50;10.00;;;;;14.03;47.47;101990.34;5022017;28;45297;-65
2023/05/17 01:33:01;;;;;;;;;11.75;10.00;;;;;14.06;47.49;101997.34;5021902;28;45500;-63
2023/05/17 01:35:26;;;;;;;;;12.25;9.25;;;;;14.02;47.36;101993.88;5021740;28;45433;-65
2023/05/17 01:37:53;;;;;;;;;8.50;6.75;;;;;14.02;47.30;101985.06;5021872;28;45585;-65
2023/05/17 01:40:19;;;;;;;;;9.25;8.75;;;;;14.04;47.55;101988.59;5021774;28;46771;-65
2023/05/17 01:42:49;;;;;;;;;11.75;9.75;;;;;14.05;47.94;101992.97;5020168;28;45396;-65
2023/05/17 01:45:25;;;;;;;;;8.00;8.00;;;;;14.05;47.41;101999.13;5021879;28;45325;-65
2023/05/17 01:47:53;;;;;;;;;8.50;8.50;;;;;14.06;47.78;101997.34;5020690;28;45358;-65
2023/05/17 01:50:23;;;;;;;;;9.00;9.00;;;;;14.05;47.77;101998.25;5021497;28;46502;-65
2023/05/17 01:52:51;;;;;;;;;10.00;9.00;;;;;14.06;47.41;101990.31;5021491;28;45411;-65
2023/05/17 01:55:41;;;;;;;;;9.75;7.75;;;;;14.05;47.58;102000.88;5021704;28;45475;-65
2023/05/17 01:58:09;;;;;;;;;9.25;8.25;;;;;14.03;47.55;101989.47;5007242;28;45236;-65
2023/05/17 02:00:35;;;;;;;;;11.50;8.75;;;;;14.04;47.45;101988.59;5020156;28;47182;-65
2023/05/17 02:03:00;;;;;;;;;11.00;8.00;;;;;14.00;47.85;101993.03;5021542;28;45351;-65
2023/05/17 02:05:26;;;;;;;;;8.50;8.00;;;;;14.01;47.63;101997.38;5021571;28;45380;-65
2023/05/17 02:07:51;;;;;;;;;12.00;9.50;;;;;13.96;47.85;101994.81;5022140;28;45530;-65
2023/05/17 02:10:16;;;;;;;;;8.25;6.25;;;;;13.95;47.58;101990.41;5021471;28;45245;-65
2023/05/17 02:12:42;;;;;;;;;12.00;9.00;;;;;13.94;47.77;101999.22;5021030;28;45653;-66
2023/05/17 02:15:10;;;;;;;;;9.75;9.00;;;;;13.93;48.00;101991.31;5021820;28;45225;-65
2023/05/17 02:17:36;;;;;;;;;8.00;8.00;;;;;13.93;47.85;101994.81;5020044;28;45254;-65
2023/05/17 02:20:01;;;;;;;;;10.50;9.25;;;;;13.90;48.15;101999.25;5021109;28;45435;-65
2023/05/17 02:22:27;;;;;;;;;9.75;7.50;;;;;13.90;47.86;101996.59;5019934;28;45254;-65
2023/05/17 02:24:52;;;;;;;;;10.75;10.00;;;;;13.86;47.78;101998.44;5020047;28;45341;-65
2023/05/17 02:27:17;;;;;;;;;9.00;9.00;;;;;13.85;48.11;101999.31;5019775;28;46554;-65
2023/05/17 02:29:42;;;;;;;;;11.00;9.75;;;;;13.85;47.90;102007.22;5021335;28;45999;-65
2023/05/17 02:32:08;;;;;;;;;8.25;7.50;;;;;13.82;48.09;102001.94;5019389;28;56365;-65
2023/05/17 02:34:33;;;;;;;;;10.50;9.00;;;;;13.84;48.03;102012.53;5021263;28;45388;-64
2023/05/17 02:36:58;;;;;;;;;13.50;11.50;;;;;13.84;47.94;102015.19;5021060;28;45301;-65
2023/05/17 02:39:24;;;;;;;;;10.25;9.00;;;;;13.83;48.48;102014.28;5020523;28;45374;-65
2023/05/17 02:41:49;;;;;;;;;6.75;6.75;;;;;13.83;48.20;102016.94;5020891;28;45292;-65
2023/05/17 02:44:15;;;;;;;;;9.00;6.00;;;;;13.82;48.25;102017.81;5019817;28;45290;-65
2023/05/17 02:46:40;;;;;;;;;9.25;9.25;;;;;13.81;48.09;102016.03;5020974;28;45437;-65
2023/05/17 02:49:05;;;;;;;;;9.00;7.75;;;;;13.83;48.42;102016.94;5019357;28;47134;-65
2023/05/17 02:51:31;;;;;;;;;14.25;10.75;;;;;13.82;48.24;102013.41;5020875;28;45309;-65
2023/05/17 02:53:56;;;;;;;;;11.25;9.00;;;;;13.82;48.27;102021.34;5021005;28;45257;-65
2023/05/17 02:56:21;;;;;;;;;11.00;7.25;;;;;13.83;48.16;102019.56;5019827;28;46929;-65
2023/05/17 02:58:47;;;;;;;;;9.75;9.00;;;;;13.84;48.35;102020.47;5008255;28;46282;-65
2023/05/17 03:01:12;;;;;;;;;10.00;8.75;;;;;13.84;48.56;102012.53;5019364;28;45278;-65
2023/05/17 03:03:37;;;;;;;;;12.50;10.50;;;;;13.84;48.41;102017.81;5020831;28;45228;-65
2023/05/17 03:06:03;;;;;;;;;7.00;7.00;;;;;13.84;48.37;102016.03;5018722;28;53983;-65
2023/05/17 03:08:30;;;;;;;;;9.50;9.50;;;;;13.83;48.16;102016.94;5024218;28;45402;-65
2023/05/17 03:10:55;;;;;;;;;17.25;11.50;;;;;13.85;48.84;102025.72;5020011;28;45249;-65
2023/05/17 03:13:20;;;;;;;;;10.25;9.00;;;;;13.81;48.60;102011.66;5020476;28;45341;-65
2023/05/17 03:15:46;;;;;;;;;10.50;10.00;;;;;13.84;48.32;102010.75;5018627;28;48443;-64
2023/05/17 03:18:11;;;;;;;;;10.50;8.75;;;;;13.84;48.83;102016.03;5020598;28;45327;-64
2023/05/17 03:20:36;;;;;;;;;9.50;8.00;;;;;13.82;48.63;102015.16;5019766;28;56145;-65
2023/05/17 03:23:02;;;;;;;;;8.25;8.25;;;;;13.84;48.38;102023.09;5019282;28;46691;-64
2023/05/17 03:25:27;;;;;;;;;13.50;11.75;;;;;13.81;48.71;102016.94;5020479;28;45491;-65
2023/05/17 03:27:52;;;;;;;;;11.50;11.00;;;;;13.82;48.52;102017.81;5019034;28;47260;-65
2023/05/17 03:30:18;;;;;;;;;11.25;10.00;;;;;13.76;48.48;102013.47;5019992;28;53362;-65
2023/05/17 03:32:44;;;;;;;;;10.50;9.25;;;;;13.80;48.82;102016.97;5019079;28;45425;-65
2023/05/17 03:35:10;;;;;;;;;13.25;12.00;;;;;13.79;48.50;102017.84;5020034;28;45462;-65
2023/05/17 03:37:35;;;;;;;;;10.25;10.00;;;;;13.78;48.72;102022.22;5018770;28;47994;-65
2023/05/17 03:40:00;;;;;;;;;11.25;10.00;;;;;13.76;48.45;102017.84;5020025;28;45412;-65
2023/05/17 03:42:26;;;;;;;;;12.00;12.00;;;;;13.75;48.69;102021.41;5020223;28;45317;-65
2023/05/17 03:44:51;;;;;;;;;13.00;11.25;;;;;13.71;48.78;102020.53;5008879;28;45426;-64
2023/05/17 03:47:16;;;;;;;;;13.00;10.00;;;;;13.69;48.77;102017.03;5020034;28;46077;-65
2023/05/17 03:49:42;;;;;;;;;10.00;9.00;;;;;13.64;48.90;102017.03;5019923;28;45373;-64
2023/05/17 03:52:07;;;;;;;;;15.25;12.00;;;;;13.65;48.93;102028.50;5019141;28;45243;-64
2023/05/17 03:54:32;;;;;;;;;14.25;13.00;;;;;13.63;48.77;102025.88;5018629;28;45404;-65
2023/05/17 03:56:58;;;;;;;;;14.75;11.50;;;;;13.63;48.72;102027.63;5019769;28;45317;-65
2023/05/17 03:59:24;;;;;;;;;12.75;12.75;;;;;13.58;48.81;102025.00;5019118;28;45527;-65
2023/05/17 04:01:49;;;;;;;;;11.75;11.75;;;;;13.58;48.82;102032.94;5027524;28;45345;-65
2023/05/17 04:04:14;;;;;;;;;13.50;11.25;;;;;13.56;48.83;102025.91;5019711;28;45158;-65
2023/05/17 04:06:40;;;;;;;;;10.25;10.25;;;;;13.49;48.87;102028.56;5018393;28;46095;-64
2023/05/17 04:09:06;;;;;;;;;13.00;13.00;;;;;13.51;48.63;102043.53;5019668;28;45450;-64
2023/05/17 04:11:31;;;;;;;;;12.50;12.50;;;;;13.46;48.84;102044.47;5018368;28;45262;-65
2023/05/17 04:13:57;;;;;;;;;17.25;14.50;;;;;13.47;48.74;102055.88;5019693;28;45500;-64
2023/05/17 04:16:22;;;;;;;;;13.75;11.75;;;;;13.43;48.77;102059.44;5018231;28;45998;-65
2023/05/17 04:18:51;;;;;;;;;16.25;14.75;;;;;13.41;48.80;102062.09;5019826;28;45410;-65
2023/05/17 04:21:17;;;;;;;;;17.00;15.50;;;;;13.39;48.92;102060.34;5018383;28;45365;-62
2023/05/17 04:23:43;;;;;;;;;18.00;17.75;;;;;13.30;49.41;102046.25;5023400;28;45182;-64
2023/05/17 04:26:08;;;;;;;;;18.75;18.75;;;;;13.29;49.15;102054.19;5022297;28;45812;-65
2023/05/17 04:28:34;;;;;;;;;25.00;20.25;;;;;13.30;49.06;102071.78;5021164;28;45317;-64
2023/05/17 04:30:59;;;;;;;;;21.25;19.25;;;;;13.26;49.19;102065.63;5022353;28;45340;-64
2023/05/17 04:33:24;;;;;;;;;20.50;17.75;;;;;13.26;49.33;102072.69;5023199;28;45223;-62
2023/05/17 04:35:53;;;;;;;;;23.00;19.75;;;;;13.22;49.57;102074.47;5022752;28;45523;-64
2023/05/17 04:38:18;;;;;;;;;19.00;18.50;;;;;13.22;49.04;102078.84;5023085;28;45305;-64
2023/05/17 04:40:44;;;;;;;;;25.25;22.50;;;;;13.20;49.14;102080.63;5022918;28;45430;-64
2023/05/17 04:43:09;;;;;;;;;22.50;21.25;;;;;13.18;49.18;102080.63;5023004;28;45319;-65
2023/05/17 04:45:36;;;;;;;;;20.75;20.75;;;;;13.13;49.35;102074.47;5022786;28;45924;-64
2023/05/17 04:48:02;;;;;;;;;26.00;22.50;;;;;13.12;49.48;102084.19;5022668;28;45372;-64
2023/05/17 04:50:27;;;;;;;;;21.50;21.00;;;;;13.10;49.34;102078.00;5022656;28;45326;-65
2023/05/17 04:52:53;;;;;;;;;21.75;20.25;;;;;13.08;49.46;102085.06;5021455;28;45396;-63
2023/05/17 04:55:18;;;;;;;;;23.50;23.50;;;;;13.06;49.55;102091.25;5022533;28;45328;-62
2023/05/17 04:57:43;;;;;;;;;25.50;20.50;;;;;13.05;49.48;102095.63;5022253;28;45323;-64
2023/05/17 05:00:09;;;;;;;;;24.75;22.00;;;;;13.05;49.88;102105.31;5022098;28;45174;-65
2023/05/17 05:02:35;;;;;;;;;25.50;22.50;;;;;13.03;49.70;102093.88;5037932;28;45502;-64
2023/05/17 05:05:01;;;;;;;;;28.00;23.25;;;;;13.00;49.53;102092.13;5021887;28;46400;-64
2023/05/17 05:07:26;;;;;;;;;26.50;24.00;;;;;13.01;49.74;102107.94;4992255;28;45668;-65
2023/05/17 05:09:52;;;;;;;;;27.25;26.00;;;;;13.01;49.51;102112.34;5018605;28;45330;-63
2023/05/17 05:12:17;;;;;;;;;23.75;20.75;;;;;12.91;49.82;102098.31;5022593;28;45665;-63
2023/05/17 05:14:43;;;;;;;;;25.75;22.50;;;;;12.93;49.82;102103.56;5022079;28;46197;-63
2023/05/17 05:17:09;;;;;;;;;25.25;23.75;;;;;12.99;49.94;102122.03;5022503;28;45466;-63
2023/05/17 05:19:34;;;;;;;;;27.25;25.00;;;;;12.97;50.04;102116.75;5025477;28;45311;-63
2023/05/17 05:21:59;;;;;;;;;27.25;23.50;;;;;12.97;49.98;102131.72;5022401;28;45541;-63
2023/05/17 05:24:25;;;;;;;;;27.00;22.75;;;;;12.96;49.69;102132.59;5022244;28;45406;-64
2023/05/17 05:26:50;;;;;;;;;22.75;21.50;;;;;12.93;49.98;102125.56;5022128;28;45463;-64
2023/05/17 05:29:15;;;;;;;;;25.50;23.50;;;;;12.91;50.00;102122.03;5020981;28;45926;-64
2023/05/17 05:31:41;;;;;;;;;26.00;22.00;;;;;12.95;50.07;102134.34;5022236;28;45462;-64
2023/05/17 05:34:06;;;;;;;;;20.50;20.25;;;;;12.94;49.97;102129.97;5021772;28;45342;-64
2023/05/17 05:36:31;;;;;;;;;25.00;22.50;;;;;12.93;50.26;102132.59;5020792;28;45307;-64
2023/05/17 05:38:57;;;;;;;;;25.75;20.50;;;;;12.93;50.08;102133.50;5022124;28;45285;-64
2023/05/17 05:41:22;;;;;;;;;23.25;21.50;;;;;12.88;50.24;102127.34;5021847;28;50366;-64
2023/05/17 05:43:47;;;;;;;;;20.00;19.25;;;;;12.94;50.14;102137.88;5021617;28;46026;-64
2023/05/17 05:46:13;;;;;;;;;20.50;20.00;;;;;12.90;50.13;102128.19;5022040;28;45301;-63
2023/05/17 05:48:40;;;;;;;;;26.50;23.00;;;;;12.96;49.99;102148.44;5022103;28;45415;-63
2023/05/17 05:51:06;;;;;;;;;20.25;19.75;;;;;12.95;50.37;102139.63;5022098;28;45197;-64
2023/05/17 05:53:32;;;;;;;;;23.00;22.25;;;;;12.95;50.41;102146.66;5020316;28;47715;-64
2023/05/17 05:55:57;;;;;;;;;30.75;24.75;;;;;12.96;50.13;102151.94;5022061;28;45161;-63
2023/05/17 05:58:22;;;;;;;;;23.50;22.50;;;;;12.96;50.50;102148.44;5022051;28;45512;-63
2023/05/17 06:00:48;;;;;;;;;30.00;25.50;;;;;12.97;50.11;102150.19;5022580;28;45232;-64
2023/05/17 06:03:13;;;;;;;;;26.25;22.75;;;;;12.98;50.20;102151.94;5020835;28;47030;-64
2023/05/17 06:05:39;;;;;;;;;20.75;17.50;;;;;12.96;50.30;102151.94;5020522;28;45779;-64
2023/05/17 06:08:05;;;;;;;;;24.25;20.75;;;;;12.98;50.49;102152.81;5021413;28;45370;-64
2023/05/17 06:10:31;;;;;;;;;21.00;20.50;;;;;12.94;50.79;102156.38;5023672;28;45415;-64
2023/05/17 06:13:03;;;;;;;;;26.25;20.75;;;;;12.98;50.42;102165.13;5022050;28;45349;-66
2023/05/17 06:15:30;;;;;;;;;21.00;17.50;;;;;13.01;50.44;102171.28;5022384;28;45357;-64
2023/05/17 06:17:56;;;;;;;;;16.25;15.75;;;;;12.98;50.65;102151.94;5022356;28;45324;-63
2023/05/17 06:20:21;;;;;;;;;20.50;16.25;;;;;13.01;50.45;102170.41;5021044;28;45328;-64
2023/05/17 06:22:47;;;;;;;;;23.50;18.00;;;;;13.04;50.53;102162.47;5021933;28;45420;-64
2023/05/17 06:25:12;;;;;;;;;21.25;16.25;;;;;13.05;50.56;102166.00;5021084;28;46429;-64
2023/05/17 06:27:38;;;;;;;;;20.00;15.00;;;;;13.06;50.60;102167.78;5020860;28;45344;-65
2023/05/17 06:30:04;;;;;;;;;16.75;16.25;;;;;13.05;50.47;102166.88;5021183;28;45421;-63
2023/05/17 06:32:30;;;;;;;;;27.00;20.25;;;;;13.06;50.71;102181.84;5021147;28;46532;-63
2023/05/17 06:34:55;;;;;;;;;22.00;19.50;;;;;13.10;50.67;102180.06;5021184;28;45693;-65
2023/05/17 06:37:20;;;;;;;;;21.50;18.00;;;;;13.10;50.76;102191.50;5021178;28;45434;-63
2023/05/17 06:39:46;;;;;;;;;27.50;25.00;;;;;13.11;50.75;102171.28;5021083;28;45454;-65
2023/05/17 06:42:11;;;;;;;;;18.00;14.75;;;;;13.18;50.87;102188.84;5019713;28;47193;-65
2023/05/17 06:44:36;;;;;;;;;17.50;14.75;;;;;13.18;50.74;102175.63;5020267;28;45387;-65
2023/05/17 06:47:02;;;;;;;;;15.00;13.00;;;;;13.20;50.59;102186.22;5019102;28;47645;-66
2023/05/17 06:49:27;;;;;;;;;18.75;15.00;;;;;13.25;50.86;102179.16;5019868;28;45446;-64
2023/05/17 06:51:54;;;;;;;;;15.75;13.25;;;;;13.26;50.80;102186.22;5015257;28;45897;-63
2023/05/17 06:54:19;;;;;;;;;16.50;14.50;;;;;13.28;50.57;102184.44;5019269;28;45562;-64
2023/05/17 06:56:45;;;;;;;;;12.50;11.25;;;;;13.29;50.77;102180.91;5021550;28;45407;-64
2023/05/17 06:59:10;;;;;;;;;14.50;13.25;;;;;13.35;50.60;102187.94;5020376;28;45506;-65
2023/05/17 07:01:35;;;;;;;;;11.75;9.25;;;;;13.37;50.57;102188.81;5013085;28;47012;-63
2023/05/17 07:04:01;;;;;;;;;13.25;11.25;;;;;13.40;50.83;102199.41;5020117;28;45521;-64
2023/05/17 07:06:26;;;;;;;;;11.00;10.25;;;;;13.39;50.49;102192.38;5019882;28;45393;-62
2023/05/17 07:08:51;;;;;;;;;12.25;11.25;;;;;13.41;50.57;102195.84;5039175;28;45554;-63
2023/05/17 07:11:17;;;;;;;;;10.75;10.75;;;;;13.45;50.92;102193.22;5021904;28;46050;-63
2023/05/17 07:13:42;;;;;;;;;11.25;10.75;;;;;13.48;50.71;102195.84;5020448;28;45300;-63
2023/05/17 07:16:08;;;;;;;;;18.75;12.75;;;;;13.54;50.43;102200.22;5020465;28;45188;-63
2023/05/17 07:18:33;;;;;;;;;12.25;11.00;;;;;13.55;50.90;102202.00;5020319;28;45483;-63
2023/05/17 07:20:58;;;;;;;;;18.50;16.00;;;;;13.54;50.45;102194.94;5019909;28;46182;-64
2023/05/17 07:23:24;;;;;;;;;13.25;12.50;;;;;13.58;50.94;102209.03;5019951;28;45357;-63
2023/05/17 07:25:49;;;;;;;;;15.25;12.75;;;;;13.61;50.44;102215.19;5021760;28;45582;-63
2023/05/17 07:28:15;;;;;;;;;13.00;12.00;;;;;13.65;50.74;102214.28;5020186;28;45444;-63
2023/05/17 07:30:40;;;;;;;;;17.25;14.25;;;;;13.65;50.49;102209.00;5020027;28;45353;-63
2023/05/17 07:33:06;;;;;;;;;13.25;12.00;;;;;13.70;50.46;102219.56;5020219;28;45388;-64
2023/05/17 07:35:31;;;;;;;;;13.00;11.00;;;;;13.75;50.35;102222.19;5019931;28;45483;-63
2023/05/17 07:37:56;;;;;;;;;13.75;9.00;;;;;13.78;50.28;102212.47;5020064;28;45420;-63
2023/05/17 07:40:22;;;;;;;;;12.50;9.50;;;;;13.76;50.73;102214.25;5018388;28;47061;-64
2023/05/17 07:42:47;;;;;;;;;10.25;9.50;;;;;13.86;50.73;102223.03;5020125;28;45329;-63
2023/05/17 07:45:13;;;;;;;;;11.75;10.25;;;;;13.88;50.56;102215.94;5020128;28;45324;-64
2023/05/17 07:47:38;;;;;;;;;9.50;8.50;;;;;13.89;50.40;102212.41;5020069;28;45450;-63
2023/05/17 07:50:04;;;;;;;;;12.25;8.50;;;;;13.97;50.75;102221.19;5019140;28;45262;-67
2023/05/17 07:52:29;;;;;;;;;7.50;6.75;;;;;14.00;50.29;102217.66;5017952;28;45475;-68
2023/05/17 07:54:54;;;;;;;;;7.25;6.75;;;;;14.04;50.59;102216.75;5018315;28;45444;-65
2023/05/17 07:57:20;;;;;;;;;10.75;9.75;;;;;14.06;50.29;102217.63;5017829;28;55175;-66
2023/05/17 07:59:45;;;;;;;;;7.25;6.50;;;;;14.12;50.43;102214.06;5017871;28;46594;-64
2023/05/17 08:02:10;;;;;;;;;8.25;8.25;;;;;14.16;50.35;102212.28;5019675;28;45299;-62
2023/05/17 08:04:36;;;;;;;;;9.00;7.75;;;;;14.19;50.74;102213.16;5019417;28;45877;-62
2023/05/17 08:07:04;;;;;;;;;11.00;8.50;;;;;14.19;50.54;102218.44;5018003;28;45562;-62
2023/05/17 08:09:30;;;;;;;;;8.00;7.00;;;;;14.25;50.17;102213.13;5019484;28;46168;-62
2023/05/17 08:11:56;;;;;;;;;8.00;6.75;;;;;14.29;50.36;102219.28;5019400;28;45278;-62
2023/05/17 08:14:23;;;;;;;;;8.50;6.75;;;;;14.33;50.00;102217.50;5019227;28;45296;-62
2023/05/17 08:16:50;;;;;;;;;6.25;6.25;;;;;14.36;50.24;102218.31;5004449;28;45542;-61
2023/05/17 08:19:16;;;;;;;;;7.00;7.00;;;;;14.42;49.98;102218.28;4991953;28;45872;-61
2023/05/17 08:21:42;;;;;;;;;6.50;6.50;;;;;14.47;49.96;102220.91;5013615;28;45372;-61
2023/05/17 08:24:08;;;;;;;;;7.75;6.00;;;;;14.49;49.94;102223.53;5003676;28;45390;-61
2023/05/17 08:26:34;;;;;;;;;11.00;7.75;;;;;14.54;49.66;102221.72;5014127;28;45385;-61
2023/05/17 08:29:01;;;;;;;;;10.50;8.75;;;;;14.58;50.00;102221.69;5013452;28;47074;-61
2023/05/17 08:31:27;;;;;;;;;11.00;10.00;;;;;14.62;50.10;102226.06;5013746;28;45765;-61
2023/05/17 08:33:53;;;;;;;;;9.50;7.75;;;;;14.66;50.33;102224.31;5013677;28;45585;-61
2023/05/17 08:36:18;;;;;;;;;6.00;6.00;;;;;14.71;49.94;102226.94;5013095;28;45595;-61
2023/05/17 08:38:44;;;;;;;;;7.00;7.00;;;;;14.76;49.90;102217.19;5011116;28;46508;-61
2023/05/17 08:41:09;;;;;;;;;11.75;9.00;;;;;14.81;49.84;102211.88;5013364;28;45670;-61
2023/05/17 08:43:35;;;;;;;;;8.75;8.00;;;;;14.83;49.90;102220.66;5004622;28;45479;-61
2023/05/17 08:46:02;;;;;;;;;7.25;7.25;;;;;14.89;49.78;102217.97;5013848;28;45465;-62
2023/05/17 08:48:29;;;;;;;;;9.50;8.50;;;;;14.94;50.10;102222.34;5012184;28;45523;-61
2023/05/17 08:50:58;;;;;;;;;11.00;8.75;;;;;14.98;49.76;102215.25;5013613;28;45324;-61
2023/05/17 08:53:25;;;;;;;;;9.75;7.00;;;;;15.04;50.17;102220.50;5004463;28;45612;-61
2023/05/17 08:55:56;;;;;;;;;9.75;6.00;;;;;15.08;49.97;102208.06;5013305;28;46725;-61
2023/05/17 08:58:26;;;;;;;;;9.00;7.50;;;;;15.16;49.66;102219.47;5012505;28;45483;-62
2023/05/17 09:00:53;;;;;;;;;9.00;9.00;;;;;15.21;49.84;102212.38;5013818;28;45611;-61
2023/05/17 09:03:21;;;;;;;;;7.50;7.25;;;;;15.27;50.20;102200.84;5013468;28;45434;-61
2023/05/17 09:05:51;;;;;;;;;9.25;8.75;;;;;15.32;49.89;102201.66;5012343;28;46663;-61
2023/05/17 09:08:17;;;;;;;;;9.75;8.25;;;;;15.34;49.64;102197.22;5004759;28;47999;-62
2023/05/17 09:10:42;;;;;;;;;8.25;8.25;;;;;15.43;49.83;102202.44;5016327;28;45636;-62
2023/05/17 09:13:11;;;;;;;;;5.50;4.00;;;;;15.47;49.83;102197.97;5016597;28;45356;-62
2023/05/17 09:15:40;;;;;;;;;9.00;7.75;;;;;15.54;49.83;102204.06;5017203;28;45437;-62
2023/05/17 09:18:11;;;;;;;;;8.50;8.50;;;;;15.58;49.69;102213.72;5005568;28;47396;-61
2023/05/17 09:20:38;;;;;;;;;7.50;6.75;;;;;15.65;49.49;102203.97;5010103;28;45413;-61
2023/05/17 09:23:05;;;;;;;;;9.00;8.25;;;;;15.70;49.50;102208.28;5015727;28;45541;-61
2023/05/17 09:25:31;;;;;;;;;5.25;4.25;;;;;15.75;49.62;102202.94;5017015;28;45498;-61
2023/05/17 09:28:04;;;;;;;;;9.50;7.50;;;;;15.82;49.53;102203.75;5017567;28;46386;-61
2023/05/17 09:30:31;;;;;;;;;11.25;10.00;;;;;15.86;49.46;102208.13;5015915;28;45488;-61
2023/05/17 09:33:03;;;;;;;;;7.75;6.00;;;;;15.89;49.05;102201.00;5007538;28;45695;-61
2023/05/17 09:35:30;;;;;;;;;9.50;6.00;;;;;16.01;48.92;102209.69;4999711;28;45641;-62
2023/05/17 09:38:16;;;;;;;;;7.50;6.00;;;;;16.08;48.86;102219.31;5015811;28;47100;-62
2023/05/17 09:40:45;;;;;;;;;10.25;7.00;;;;;16.15;49.17;102214.81;5015770;28;45454;-62
2023/05/17 09:43:11;;;;;;;;;8.50;7.00;;;;;16.22;49.04;102212.03;5004766;28;45278;-63
2023/05/17 09:45:37;;;;;;;;;9.75;6.00;;;;;16.28;49.19;102210.22;5003367;28;45547;-62
2023/05/17 09:48:13;;;;;;;;;11.25;7.25;;;;;16.36;48.81;102210.97;5016813;28;45917;-62
2023/05/17 09:50:48;;;;;;;;;7.25;5.75;;;;;16.45;48.60;102212.59;5003165;28;45966;-66
2023/05/17 09:53:31;;;;;;;;;7.50;5.75;;;;;16.55;49.08;102208.91;5016225;28;45628;-65
2023/05/17 09:55:59;;;;;;;;;9.00;7.75;;;;;16.63;49.07;102201.69;5017198;28;45552;-66
2023/05/17 09:58:27;;;;;;;;;10.25;7.00;;;;;16.74;48.95;102201.50;5000094;28;47638;-67
2023/05/17 10:00:57;;;;;;;;;10.50;7.75;;;;;16.85;48.84;102209.28;5025544;28;45353;-66
2023/05/17 10:03:25;;;;;;;;;6.75;6.75;;;;;17.00;49.20;102205.53;5020311;28;45471;-67
2023/05/17 10:05:52;;;;;;;;;7.75;6.50;;;;;17.16;48.90;102206.13;5020947;28;45527;-66
2023/05/17 10:08:22;;;;;;;;;8.00;5.00;;;;;17.33;48.92;102211.13;5020901;28;45487;-66
2023/05/17 10:10:49;;;;;;;;;8.00;5.75;;;;;17.50;49.22;102203.69;5021079;28;45220;-66
2023/05/17 10:13:20;;;;;;;;;6.50;5.50;;;;;17.76;49.26;102204.06;5019737;28;45477;-66
2023/05/17 10:15:47;;;;;;;;;8.75;7.00;;;;;18.06;49.67;102207.00;5020997;28;45312;-67
2023/05/17 10:18:14;;;;;;;;;6.50;5.00;;;;;18.39;49.44;102202.69;5020886;28;46230;-67
2023/05/17 10:20:40;;;;;;;;;5.75;5.25;;;;;18.76;49.98;102187.59;5011364;28;45938;-66
2023/05/17 10:23:07;;;;;;;;;6.50;6.50;;;;;19.21;49.87;102191.78;5020847;28;45376;-67
2023/05/17 10:25:32;;;;;;;;;3.75;3.00;;;;;19.69;50.53;102193.09;5020702;28;45450;-68
2023/05/17 10:27:59;;;;;;;;;5.50;5.50;;;;;20.18;50.71;102190.75;5020377;28;45985;-67
2023/05/17 10:30:27;;;;;;;;;6.75;5.25;;;;;20.74;50.56;102190.69;5020761;28;45321;-69
2023/05/17 10:32:54;;;;;;;;;6.50;6.50;;;;;21.30;50.84;102186.06;5020740;28;45460;-68
2023/05/17 10:35:20;;;;;;;;;8.00;5.00;;;;;21.86;51.04;102175.97;5018900;28;45780;-67
2023/05/17 10:37:45;;;;;;;;;6.00;6.00;;;;;22.46;50.80;102195.00;5020369;28;45368;-67
2023/05/17 10:40:16;;;;;;;;;6.00;5.00;;;;;23.01;50.66;102186.44;5020560;28;45401;-68
2023/05/17 10:42:45;;;;;;;;;8.25;6.50;;;;;23.59;50.57;102178.53;5020019;28;45302;-76
2023/05/17 10:45:12;;;;;;;;;6.00;5.00;;;;;24.16;50.68;102168.69;5019346;28;45756;-70
2023/05/17 10:47:41;;;;;;;;;8.50;7.00;;;;;24.70;50.99;102170.47;5020225;28;45482;-71
2023/05/17 10:50:13;;;;;;;;;8.00;7.00;;;;;25.25;51.08;102171.22;5013515;28;45310;-69
2023/05/17 10:52:46;;;;;;;;;5.25;4.00;;;;;25.79;50.90;102168.28;5019289;28;45240;-73
2023/05/17 10:55:18;;;;;;;;;3.25;3.25;;;;;26.30;50.33;102159.16;5026543;28;45503;-63
2023/05/17 10:57:43;;;;;;;;;5.00;5.00;;;;;26.82;50.03;102158.75;5018600;28;47995;-64
2023/05/17 11:00:19;;;;;;;;;7.00;5.00;;;;;27.31;50.42;102149.44;5019346;28;45453;-66
2023/05/17 11:02:47;;;;;;;;;6.00;4.25;;;;;27.83;50.30;102164.16;5020430;28;45506;-65
2023/05/17 11:05:25;;;;;;;;;5.75;3.25;;;;;28.31;49.79;102168.25;5018755;28;45426;-63
2023/05/17 11:07:51;;;;;;;;;3.50;3.00;;;;;28.71;49.49;102165.56;5018311;28;47562;-67
2023/05/17 11:10:16;;;;;;;;;5.25;4.25;;;;;29.10;49.47;102168.31;5018679;28;45335;-66
2023/05/17 11:12:54;;;;;;;;;3.75;3.50;;;;;29.48;49.03;102172.84;5020112;28;45527;-67
2023/05/17 11:15:24;;;;;;;;;4.50;3.50;;;;;29.90;49.26;102170.69;5019960;28;45498;-66